createdAt,value
2023-02-03T00:01:36.380Z,4.40
2023-02-03T00:04:03.232Z,2.05
2023-02-03T00:06:32.074Z,2.05
2023-02-03T00:09:00.809Z,6.05
2023-02-03T00:11:30.410Z,5.93
2023-02-03T00:17:44.646Z,9.55
2023-02-03T00:20:12.240Z,5.28
2023-02-03T00:22:38.989Z,2.33
2023-02-03T00:25:06.133Z,2.25
2023-02-03T00:27:33.131Z,1.63
2023-02-03T00:29:59.945Z,3.35
2023-02-03T00:32:26.915Z,2.47
2023-02-03T00:34:53.772Z,1.70
2023-02-03T00:37:20.621Z,2.42
2023-02-03T00:39:47.353Z,2.58
2023-02-03T00:42:14.174Z,2.85
2023-02-03T00:44:40.941Z,1.95
2023-02-03T00:47:07.812Z,2.45
2023-02-03T00:49:34.608Z,2.13
2023-02-03T00:52:01.470Z,2.47
2023-02-03T00:54:28.257Z,3.55
2023-02-03T00:56:55.023Z,2.20
2023-02-03T00:59:21.917Z,2.20
2023-02-03T01:01:51.066Z,1.70
2023-02-03T01:04:17.910Z,2.03
2023-02-03T01:06:44.732Z,1.70
2023-02-03T01:09:11.483Z,1.75
2023-02-03T01:11:38.231Z,1.55
2023-02-03T01:14:05.003Z,1.65
2023-02-03T01:16:35.908Z,3.00
2023-02-03T01:19:02.699Z,1.65
2023-02-03T01:21:29.463Z,4.35
2023-02-03T01:23:56.726Z,2.17
2023-02-03T01:26:24.555Z,3.65
2023-02-03T01:28:52.921Z,3.13
2023-02-03T01:31:22.847Z,1.58
2023-02-03T01:33:51.573Z,2.28
2023-02-03T01:36:18.729Z,1.60
2023-02-03T01:38:46.336Z,3.45
2023-02-03T01:41:16.703Z,2.45
2023-02-03T01:43:47.229Z,1.60
2023-02-03T01:46:17.161Z,2.60
2023-02-03T01:48:44.273Z,1.80
2023-02-03T01:51:11.390Z,4.32
2023-02-03T01:53:39.265Z,1.92
2023-02-03T01:56:07.284Z,2.05
2023-02-03T01:58:39.286Z,1.42
2023-02-03T02:01:06.261Z,1.48
2023-02-03T02:03:40.492Z,1.45
2023-02-03T02:06:09.863Z,1.20
2023-02-03T02:08:38.442Z,3.50
2023-02-03T02:11:05.932Z,1.70
2023-02-03T02:13:37.410Z,1.70
2023-02-03T02:16:12.541Z,1.52
2023-02-03T02:18:51.885Z,1.40
2023-02-03T02:21:24.558Z,1.50
2023-02-03T02:24:15.915Z,1.75
2023-02-03T02:26:59.922Z,1.60
2023-02-03T02:29:54.377Z,1.10
2023-02-03T02:32:36.926Z,2.33
2023-02-03T02:35:30.049Z,1.48
2023-02-03T02:38:04.846Z,1.88
2023-02-03T02:40:43.909Z,1.15
2023-02-03T02:43:14.336Z,0.98
2023-02-03T02:45:54.193Z,1.73
2023-02-03T02:48:43.886Z,1.40
2023-02-03T02:51:14.196Z,1.58
2023-02-03T02:53:46.605Z,1.50
2023-02-03T02:56:15.729Z,2.10
2023-02-03T02:58:44.926Z,3.47
2023-02-03T03:01:12.297Z,1.10
2023-02-03T03:03:42.856Z,1.80
2023-02-03T03:06:16.476Z,1.70
2023-02-03T03:09:07.715Z,2.95
2023-02-03T03:11:41.350Z,3.25
2023-02-03T03:14:11.400Z,2.15
2023-02-03T03:16:39.957Z,1.35
2023-02-03T03:19:14.487Z,3.90
2023-02-03T03:21:50.517Z,1.38
2023-02-03T03:24:24.202Z,1.35
2023-02-03T03:27:05.989Z,1.50
2023-02-03T03:29:49.241Z,1.50
2023-02-03T03:32:16.290Z,3.45
2023-02-03T03:34:43.579Z,2.78
2023-02-03T03:37:13.490Z,3.88
2023-02-03T03:39:48.830Z,1.95
2023-02-03T03:42:36.433Z,3.60
2023-02-03T03:45:27.200Z,4.32
2023-02-03T03:48:12.436Z,2.15
2023-02-03T03:50:53.962Z,2.58
2023-02-03T03:53:23.192Z,2.88
2023-02-03T03:55:52.736Z,4.72
2023-02-03T03:58:26.022Z,1.90
2023-02-03T04:00:57.333Z,2.25
2023-02-03T04:03:29.720Z,2.65
2023-02-03T04:05:56.483Z,2.30
2023-02-03T04:08:23.307Z,2.30
2023-02-03T04:10:50.036Z,2.38
2023-02-03T04:13:19.925Z,4.32
2023-02-03T04:15:46.904Z,2.10
2023-02-03T04:18:15.388Z,2.53
2023-02-03T04:20:43.044Z,2.78
2023-02-03T04:23:10.457Z,2.10
2023-02-03T04:25:37.219Z,2.47
2023-02-03T04:28:04.269Z,4.28
2023-02-03T04:30:31.069Z,2.28
2023-02-03T04:32:57.817Z,2.97
2023-02-03T04:35:24.604Z,3.70
2023-02-03T04:37:51.399Z,3.92
2023-02-03T04:40:18.374Z,1.95
2023-02-03T04:42:45.146Z,8.07
2023-02-03T04:45:12.764Z,3.65
2023-02-03T04:47:39.768Z,3.25
2023-02-03T04:50:06.966Z,2.42
2023-02-03T04:52:33.784Z,3.72
2023-02-03T04:55:00.551Z,2.92
2023-02-03T04:57:27.286Z,3.08
2023-02-03T04:59:54.027Z,2.83
2023-02-03T05:02:20.767Z,5.78
2023-02-03T05:04:47.484Z,3.08
2023-02-03T05:07:14.259Z,2.83
2023-02-03T05:09:40.978Z,5.82
2023-02-03T05:12:07.822Z,2.75
2023-02-03T05:14:34.626Z,5.22
2023-02-03T05:17:01.346Z,4.70
2023-02-03T05:19:28.152Z,3.50
2023-02-03T05:21:54.914Z,7.50
2023-02-03T05:24:21.661Z,2.78
2023-02-03T05:26:48.457Z,3.92
2023-02-03T05:29:15.319Z,4.70
2023-02-03T05:31:42.073Z,3.22
2023-02-03T05:34:08.969Z,6.78
2023-02-03T05:36:35.693Z,3.28
2023-02-03T05:39:02.447Z,3.05
2023-02-03T05:41:47.690Z,4.50
2023-02-03T05:44:14.432Z,11.48
2023-02-03T05:46:41.175Z,4.40
2023-02-03T05:49:08.049Z,3.40
2023-02-03T05:51:34.850Z,5.60
2023-02-03T05:54:01.692Z,4.40
2023-02-03T05:56:28.525Z,4.13
2023-02-03T05:58:56.452Z,4.35
2023-02-03T06:01:23.315Z,4.43
2023-02-03T06:03:50.444Z,4.53
2023-02-03T06:06:17.751Z,2.28
2023-02-03T06:08:44.633Z,3.08
2023-02-03T06:11:12.109Z,4.97
2023-02-03T06:13:39.337Z,6.60
2023-02-03T06:16:06.505Z,7.10
2023-02-03T06:18:33.234Z,1.83
2023-02-03T06:20:59.972Z,5.78
2023-02-03T06:23:26.706Z,2.55
2023-02-03T06:25:53.568Z,3.17
2023-02-03T06:28:20.549Z,4.32
2023-02-03T06:30:51.219Z,5.38
2023-02-03T06:33:18.132Z,6.18
2023-02-03T06:35:44.886Z,4.88
2023-02-03T06:38:12.093Z,4.20
2023-02-03T06:40:38.850Z,4.88
2023-02-03T06:43:05.639Z,6.03
2023-02-03T06:45:32.395Z,2.38
2023-02-03T06:47:59.128Z,6.10
2023-02-03T06:50:26.165Z,5.57
2023-02-03T06:52:53.052Z,6.40
2023-02-03T06:55:19.811Z,2.35
2023-02-03T06:57:48.412Z,6.15
2023-02-03T07:00:25.997Z,3.95
2023-02-03T07:02:59.831Z,9.52
2023-02-03T07:05:28.052Z,4.47
2023-02-03T07:07:54.885Z,5.95
2023-02-03T07:10:21.914Z,3.75
2023-02-03T07:12:50.709Z,7.07
2023-02-03T07:15:18.127Z,4.18
2023-02-03T07:17:46.990Z,4.03
2023-02-03T07:20:13.785Z,7.07
2023-02-03T07:22:42.404Z,3.38
2023-02-03T07:25:09.210Z,3.25
2023-02-03T07:27:35.975Z,5.32
2023-02-03T07:30:02.871Z,3.28
2023-02-03T07:32:29.711Z,3.65
2023-02-03T07:34:57.005Z,4.13
2023-02-03T07:37:23.741Z,4.85
2023-02-03T07:39:50.476Z,5.65
2023-02-03T07:42:17.217Z,7.03
2023-02-03T07:44:43.954Z,6.82
2023-02-03T07:47:12.523Z,6.43
2023-02-03T07:49:39.471Z,6.38
2023-02-03T07:52:06.299Z,7.63
2023-02-03T07:54:33.015Z,8.98
2023-02-03T07:56:59.764Z,9.18
2023-02-03T07:59:26.559Z,5.00
2023-02-03T08:01:56.289Z,6.63
2023-02-03T08:04:24.404Z,3.92
2023-02-03T08:06:51.204Z,2.35
2023-02-03T08:09:18.058Z,3.03
2023-02-03T08:11:44.847Z,6.57
2023-02-03T08:14:11.611Z,5.78
2023-02-03T08:16:38.437Z,5.35
2023-02-03T08:19:05.840Z,7.40
2023-02-03T08:21:32.701Z,8.40
2023-02-03T08:23:59.484Z,3.97
2023-02-03T08:26:26.273Z,9.18
2023-02-03T08:28:53.189Z,9.27
2023-02-03T08:31:20.152Z,4.70
2023-02-03T08:36:31.636Z,6.13
2023-02-03T08:38:58.455Z,4.55
2023-02-03T08:41:25.252Z,4.32
2023-02-03T08:43:52.006Z,5.57
2023-02-03T08:46:18.761Z,4.28
2023-02-03T08:48:45.541Z,4.05
2023-02-03T08:51:17.383Z,2.80
2023-02-03T08:53:44.225Z,10.00
2023-02-03T08:56:12.386Z,5.93
2023-02-03T08:58:39.286Z,4.53
2023-02-03T09:01:16.231Z,3.22
2023-02-03T09:03:43.216Z,3.17
2023-02-03T09:06:13.173Z,4.30
2023-02-03T09:08:40.028Z,3.95
2023-02-03T09:11:15.363Z,3.35
2023-02-03T09:13:48.834Z,4.72
2023-02-03T09:16:17.423Z,2.67
2023-02-03T09:18:45.728Z,4.13
2023-02-03T09:21:27.402Z,4.22
2023-02-03T09:24:03.406Z,8.77
2023-02-03T09:26:30.486Z,3.15
2023-02-03T09:28:57.324Z,5.00
2023-02-03T09:31:24.273Z,2.92
2023-02-03T09:33:51.365Z,3.05
2023-02-03T09:36:18.211Z,2.08
2023-02-03T09:38:44.997Z,1.63
2023-02-03T09:41:17.578Z,1.80
2023-02-03T09:44:08.506Z,8.68
2023-02-03T09:46:55.834Z,1.92
2023-02-03T09:49:33.261Z,2.53
2023-02-03T09:52:05.793Z,5.72
2023-02-03T09:54:53.134Z,4.10
2023-02-03T09:57:23.995Z,8.15
2023-02-03T09:59:52.966Z,3.38
2023-02-03T10:02:22.925Z,2.47
2023-02-03T10:05:27.784Z,1.65
2023-02-03T10:07:57.459Z,1.30
2023-02-03T10:10:41.205Z,1.08
2023-02-03T10:13:30.063Z,1.00
2023-02-03T10:16:08.024Z,1.73
2023-02-03T10:18:45.565Z,2.75
2023-02-03T10:21:21.235Z,1.50
2023-02-03T10:23:49.447Z,0.98
2023-02-03T10:26:23.860Z,0.95
2023-02-03T10:29:02.449Z,2.45
2023-02-03T10:31:35.364Z,1.50
2023-02-03T10:34:11.690Z,3.03
2023-02-03T10:36:50.641Z,2.60
2023-02-03T10:39:33.520Z,1.50
2023-02-03T10:42:02.424Z,5.97
2023-02-03T10:44:54.200Z,3.22
2023-02-03T10:47:25.169Z,0.90
2023-02-03T10:49:53.745Z,1.30
2023-02-03T10:52:32.622Z,1.75
2023-02-03T10:54:59.900Z,1.50
2023-02-03T10:57:29.198Z,1.45
2023-02-03T11:00:17.613Z,1.42
2023-02-03T11:02:45.337Z,2.63
2023-02-03T11:05:21.109Z,2.22
2023-02-03T11:07:48.975Z,1.40
2023-02-03T11:10:40.653Z,1.50
2023-02-03T11:13:18.078Z,1.00
2023-02-03T11:15:57.058Z,2.67
2023-02-03T11:18:39.183Z,1.10
2023-02-03T11:21:22.653Z,1.80
2023-02-03T11:24:01.455Z,1.60
2023-02-03T11:26:50.465Z,1.75
2023-02-03T11:29:28.969Z,2.22
2023-02-03T11:31:57.942Z,2.30
2023-02-03T11:34:39.583Z,1.75
2023-02-03T11:37:28.285Z,2.67
2023-02-03T11:40:23.566Z,1.25
2023-02-03T11:42:50.248Z,2.50
2023-02-03T11:45:27.280Z,1.48
2023-02-03T11:48:14.138Z,1.35
2023-02-03T11:51:10.001Z,1.02
2023-02-03T11:53:56.899Z,1.40
2023-02-03T11:56:43.383Z,1.67
2023-02-03T11:59:40.600Z,0.80
2023-02-03T12:02:48.846Z,1.33
2023-02-03T12:05:27.566Z,4.05
2023-02-03T12:08:14.907Z,2.38
2023-02-03T12:10:56.614Z,2.00
2023-02-03T12:13:53.072Z,3.42
2023-02-03T12:17:06.228Z,1.35
2023-02-03T12:19:41.904Z,2.00
2023-02-03T12:22:24.216Z,2.80
2023-02-03T12:25:10.375Z,1.20
2023-02-03T12:27:45.967Z,1.65
2023-02-03T12:30:19.243Z,2.05
2023-02-03T12:32:52.612Z,2.78
2023-02-03T12:35:26.776Z,1.73
2023-02-03T12:38:03.227Z,3.03
2023-02-03T12:40:39.979Z,1.98
2023-02-03T12:43:12.647Z,1.50
2023-02-03T12:45:40.263Z,3.28
2023-02-03T12:48:16.395Z,2.00
2023-02-03T12:50:50.390Z,4.35
2023-02-03T12:53:22.566Z,1.98
2023-02-03T12:56:07.418Z,3.55
2023-02-03T12:58:47.660Z,2.05
2023-02-03T13:01:28.232Z,1.35
2023-02-03T13:04:21.031Z,3.42
2023-02-03T13:07:06.897Z,2.88
2023-02-03T13:09:53.297Z,1.55
2023-02-03T13:12:30.721Z,2.60
2023-02-03T13:15:19.819Z,6.57
2023-02-03T13:18:26.499Z,5.60
2023-02-03T13:20:54.535Z,3.35
2023-02-03T13:23:22.539Z,3.67
2023-02-03T13:26:16.852Z,3.05
2023-02-03T13:29:22.620Z,2.92
2023-02-03T13:32:29.599Z,4.13
2023-02-03T13:35:33.774Z,4.07
2023-02-03T13:38:07.482Z,3.83
2023-02-03T13:40:37.309Z,2.53
2023-02-03T13:43:11.422Z,3.75
2023-02-03T13:45:48.848Z,3.30
2023-02-03T13:48:30.976Z,2.20
2023-02-03T13:51:06.760Z,3.65
2023-02-03T13:53:39.263Z,7.10
2023-02-03T13:56:09.403Z,4.90
2023-02-03T13:58:39.178Z,3.47
2023-02-03T14:01:26.184Z,4.13
2023-02-03T14:03:53.650Z,7.55
2023-02-03T14:06:55.001Z,7.88
2023-02-03T14:09:30.788Z,11.48
2023-02-03T14:12:15.749Z,4.78
2023-02-03T14:15:03.227Z,4.50
2023-02-03T14:17:36.029Z,8.57
2023-02-03T14:20:05.630Z,6.88
2023-02-03T14:22:32.656Z,5.32
2023-02-03T14:25:06.841Z,5.35
2023-02-03T14:27:33.929Z,3.28
2023-02-03T14:30:10.773Z,6.78
2023-02-03T14:32:55.347Z,6.32
2023-02-03T14:35:29.744Z,5.18
2023-02-03T14:38:03.721Z,5.50
2023-02-03T14:40:47.997Z,7.53
2023-02-03T14:43:27.240Z,4.47
2023-02-03T14:46:12.234Z,3.72
2023-02-03T14:49:08.390Z,6.53
2023-02-03T14:52:21.042Z,5.88
2023-02-03T14:55:10.102Z,3.63
2023-02-03T14:57:49.107Z,6.32
2023-02-03T15:00:22.931Z,7.70
2023-02-03T15:03:09.309Z,6.68
2023-02-03T15:05:54.697Z,5.32
2023-02-03T15:08:45.670Z,8.18
2023-02-03T15:11:29.140Z,6.68
2023-02-03T15:14:13.345Z,7.60
2023-02-03T15:16:43.929Z,8.52
2023-02-03T15:19:20.766Z,7.40
2023-02-03T15:21:47.696Z,5.28
2023-02-03T15:24:19.653Z,8.25
2023-02-03T15:26:51.610Z,7.50
2023-02-03T15:29:26.438Z,4.15
2023-02-03T15:32:26.643Z,6.82
2023-02-03T15:34:55.820Z,5.05
2023-02-03T15:37:42.855Z,6.07
2023-02-03T15:40:17.726Z,4.28
2023-02-03T15:43:01.844Z,5.85
2023-02-03T15:45:41.827Z,8.25
2023-02-03T15:48:23.723Z,8.00
2023-02-03T15:51:09.173Z,6.78
2023-02-03T15:53:58.634Z,7.13
2023-02-03T15:56:42.189Z,4.70
2023-02-03T15:59:48.130Z,6.07
2023-02-03T16:02:30.217Z,6.13
2023-02-03T16:04:57.429Z,7.18
2023-02-03T16:07:30.187Z,7.32
2023-02-03T16:09:58.755Z,7.15
2023-02-03T16:12:29.814Z,5.63
2023-02-03T16:14:58.747Z,6.63
2023-02-03T16:17:28.577Z,9.35
2023-02-03T16:20:14.392Z,6.93
2023-02-03T16:22:46.988Z,8.20
2023-02-03T16:25:19.920Z,6.28
2023-02-03T16:28:16.092Z,11.05
2023-02-03T16:31:28.897Z,10.52
2023-02-03T16:34:14.183Z,8.52
2023-02-03T16:37:02.266Z,7.65
2023-02-03T16:39:47.935Z,6.93
2023-02-03T16:42:38.598Z,7.25
2023-02-03T16:45:34.819Z,10.30
2023-02-03T16:48:21.421Z,12.77
2023-02-03T16:50:56.353Z,10.82
2023-02-03T16:53:25.559Z,11.70
2023-02-03T16:55:54.744Z,5.05
2023-02-03T16:58:21.984Z,8.80
2023-02-03T17:00:50.386Z,7.55
2023-02-03T17:03:19.613Z,9.65
2023-02-03T17:05:47.802Z,8.93
2023-02-03T17:08:16.458Z,7.55
2023-02-03T17:10:44.311Z,8.52
2023-02-03T17:13:11.838Z,6.38
2023-02-03T17:15:55.328Z,5.50
2023-02-03T17:18:22.323Z,9.75
2023-02-03T17:20:49.136Z,10.95
2023-02-03T17:23:16.693Z,16.08
2023-02-03T17:25:48.638Z,11.93
2023-02-03T17:28:15.631Z,6.00
2023-02-03T17:30:42.652Z,7.53
2023-02-03T17:33:12.828Z,7.40
2023-02-03T17:35:43.886Z,8.68
2023-02-03T17:38:11.757Z,6.13
2023-02-03T17:54:30.790Z,7.80
2023-02-03T17:56:57.538Z,9.77
2023-02-03T17:59:24.279Z,8.07
2023-02-03T18:01:51.890Z,10.75
2023-02-03T18:04:18.766Z,8.32
2023-02-03T18:06:46.428Z,10.23
2023-02-03T18:09:16.586Z,7.97
2023-02-03T18:11:43.811Z,8.43
2023-02-03T18:14:12.539Z,8.57
2023-02-03T18:16:40.370Z,10.43
2023-02-03T18:19:10.761Z,13.10
2023-02-03T18:21:41.855Z,6.90
2023-02-03T18:24:10.909Z,9.32
2023-02-03T18:26:47.364Z,10.55
2023-02-03T18:29:14.299Z,8.07
2023-02-03T18:31:41.384Z,8.75
2023-02-03T18:34:08.236Z,8.52
2023-02-03T18:36:34.991Z,6.57
2023-02-03T18:39:02.154Z,11.18
2023-02-03T18:41:28.965Z,9.50
2023-02-03T18:43:55.850Z,12.05
2023-02-03T18:46:28.337Z,14.40
2023-02-03T18:48:56.227Z,15.93
2023-02-03T18:51:24.432Z,11.70
2023-02-03T18:53:51.683Z,14.95
2023-02-03T18:56:23.503Z,20.45
2023-02-03T18:58:50.981Z,16.33
2023-02-03T19:01:26.399Z,15.98
2023-02-03T19:03:55.150Z,16.33
2023-02-03T19:06:24.194Z,15.25
2023-02-03T19:08:51.571Z,14.25
2023-02-03T19:11:18.682Z,14.60
2023-02-03T19:13:45.580Z,18.77
2023-02-03T19:16:14.770Z,15.50
2023-02-03T19:18:41.980Z,14.80
2023-02-03T19:21:11.100Z,21.33
2023-02-03T19:23:42.095Z,16.45
2023-02-03T19:26:10.040Z,14.60
2023-02-03T19:28:37.294Z,11.50
2023-02-03T19:31:09.332Z,14.07
2023-02-03T19:33:37.461Z,11.00
2023-02-03T19:36:05.548Z,11.25
2023-02-03T19:38:32.365Z,12.98
2023-02-03T19:41:01.549Z,12.82
2023-02-03T19:43:29.884Z,14.40
2023-02-03T19:45:56.873Z,11.27
2023-02-03T19:48:23.701Z,12.38
2023-02-03T19:50:50.528Z,12.70
2023-02-03T19:53:18.357Z,10.50
2023-02-03T19:55:46.314Z,11.95
2023-02-03T19:58:14.143Z,13.48
2023-02-03T20:00:42.359Z,17.50
2023-02-03T20:03:09.998Z,11.40
2023-02-03T20:05:37.121Z,11.98
2023-02-03T20:08:04.619Z,13.52
2023-02-03T20:10:32.936Z,14.52
2023-02-03T20:13:00.157Z,9.15
2023-02-03T20:15:27.170Z,13.55
2023-02-03T20:17:54.370Z,9.50
2023-02-03T20:20:21.313Z,12.10
2023-02-03T20:22:48.731Z,12.05
2023-02-03T20:25:16.413Z,14.88
2023-02-03T20:27:43.261Z,10.30
2023-02-03T20:30:11.189Z,14.50
2023-02-03T20:32:38.055Z,11.70
2023-02-03T20:35:06.370Z,11.88
2023-02-03T20:37:33.172Z,14.88
2023-02-03T20:39:59.968Z,13.10
2023-02-03T20:42:27.405Z,16.15
2023-02-03T20:44:55.282Z,9.57
2023-02-03T20:47:22.946Z,16.48
2023-02-03T20:49:50.053Z,10.27
2023-02-03T20:52:21.082Z,13.20
2023-02-03T20:54:48.077Z,13.18
2023-02-03T20:57:17.425Z,12.73
2023-02-03T20:59:45.673Z,15.90
2023-02-03T21:02:47.918Z,21.05
2023-02-03T21:05:27.438Z,14.52
2023-02-03T21:07:54.712Z,14.75
2023-02-03T21:10:24.654Z,23.90
2023-02-03T21:12:52.076Z,19.27
2023-02-03T21:15:37.022Z,16.10
2023-02-03T21:18:17.827Z,13.15
2023-02-03T21:20:44.721Z,12.63
2023-02-03T21:23:13.083Z,13.88
2023-02-03T21:25:40.063Z,17.85
2023-02-03T21:28:27.976Z,15.05
2023-02-03T21:30:54.885Z,15.80
2023-02-03T21:33:42.692Z,14.38
2023-02-03T21:36:21.285Z,17.58
2023-02-03T21:38:56.319Z,13.60
2023-02-03T21:41:24.997Z,11.38
2023-02-03T21:43:57.659Z,12.32
2023-02-03T21:46:31.232Z,14.75
2023-02-03T21:48:59.723Z,12.40
2023-02-03T21:51:39.119Z,12.93
2023-02-03T21:54:27.348Z,13.77
2023-02-03T21:56:54.373Z,12.65
2023-02-03T21:59:37.290Z,14.60
2023-02-03T22:02:29.505Z,13.90
2023-02-03T22:04:57.907Z,11.93
2023-02-03T22:07:24.739Z,11.45
2023-02-03T22:09:51.625Z,15.20
2023-02-03T22:12:18.473Z,9.95
2023-02-03T22:14:45.263Z,13.90
2023-02-03T22:17:14.272Z,11.93
2023-02-03T22:19:41.177Z,13.90
2023-02-03T22:22:07.939Z,13.93
2023-02-03T22:24:34.727Z,15.20
2023-02-03T22:27:01.759Z,13.55
2023-02-03T22:29:28.545Z,9.50
2023-02-03T22:31:55.459Z,23.80
2023-02-03T22:34:23.490Z,14.63
2023-02-03T22:36:50.245Z,12.93
2023-02-03T22:39:17.018Z,13.43
2023-02-03T22:41:43.797Z,13.32
2023-02-03T22:44:16.077Z,15.80
2023-02-03T22:46:42.869Z,12.52
2023-02-03T22:49:10.977Z,19.58
2023-02-03T22:51:37.857Z,13.63
2023-02-03T22:54:04.770Z,12.20
2023-02-03T22:56:31.566Z,15.43
2023-02-03T22:58:58.353Z,14.32
2023-02-03T23:01:25.139Z,15.40
2023-02-03T23:03:51.869Z,11.60
2023-02-03T23:06:18.721Z,13.63
2023-02-03T23:08:45.660Z,15.55
2023-02-03T23:11:12.448Z,9.90
2023-02-03T23:13:39.208Z,10.20
2023-02-03T23:16:06.134Z,8.90
2023-02-03T23:18:32.952Z,12.95
2023-02-03T23:20:59.715Z,11.32
2023-02-03T23:23:26.855Z,12.23
2023-02-03T23:25:53.580Z,8.52
2023-02-03T23:28:20.484Z,11.18
2023-02-03T23:30:47.351Z,12.13
2023-02-03T23:33:14.153Z,11.05
2023-02-03T23:35:46.794Z,8.77
2023-02-03T23:38:15.481Z,12.55
2023-02-03T23:40:43.061Z,8.85
2023-02-03T23:43:10.311Z,9.70
2023-02-03T23:45:37.207Z,8.15
2023-02-03T23:48:04.198Z,6.78
2023-02-03T23:50:32.773Z,13.65
2023-02-03T23:52:59.735Z,8.98
2023-02-03T23:55:26.540Z,6.05
2023-02-03T23:57:53.360Z,5.93
